Terminal Aerodrome Forecast
Issued by NWS

Home | Current Version | Previous Version | Text Only | Print | Product List | Glossary On
Versions: 1 2 3 4 5 6 7 8 9 10 11 12 13 14 15 16 17 18
000
FTAK31 PANC 240723 AAA
TAFAIL
TAF AMD
PAIL 240723Z 2407/2506 25008KT 6SM -SHRA SCT007 BKN025
      TEMPO 2407/2410 2SM -RA BR BKN012
     FM241000 22007KT P6SM -SHRA SCT012 BKN020
     FM242100 19005KT P6SM -SHRA BKN025 OVC040
     FM250300 18005KT P6SM VCSH SCT025 BKN200=

USA.gov is the U.S. government's official web portal to all federal, state and local government web resources and services.